sensor_id;sensor_type;location;lat;lon;timestamp;pressure;altitude;pressure_sealevel;temperature;humidity
8398;BME280;4236;54.504;9.588;2023-03-05T00:02:24;101564.56;;;2.66;100.00
8398;BME280;4236;54.504;9.588;2023-03-05T00:04:52;101547.47;;;2.60;100.00
8398;BME280;4236;54.504;9.588;2023-03-05T00:07:19;101561.72;;;2.58;100.00
8398;BME280;4236;54.504;9.588;2023-03-05T00:09:47;101549.66;;;2.55;100.00
8398;BME280;4236;54.504;9.588;2023-03-05T00:12:15;101561.38;;;2.51;100.00
8398;BME280;4236;54.504;9.588;2023-03-05T00:14:44;101544.78;;;2.51;100.00
8398;BME280;4236;54.504;9.588;2023-03-05T00:17:12;101545.81;;;2.48;100.00
8398;BME280;4236;54.504;9.588;2023-03-05T00:19:40;101540.69;;;2.47;100.00
8398;BME280;4236;54.504;9.588;2023-03-05T00:22:07;101540.25;;;2.42;100.00
8398;BME280;4236;54.504;9.588;2023-03-05T00:24:35;101538.31;;;2.44;100.00
8398;BME280;4236;54.504;9.588;2023-03-05T00:27:03;101528.63;;;2.44;100.00
8398;BME280;4236;54.504;9.588;2023-03-05T00:29:30;101531.38;;;2.43;100.00
8398;BME280;4236;54.504;9.588;2023-03-05T00:31:59;101529.84;;;2.40;100.00
8398;BME280;4236;54.504;9.588;2023-03-05T00:34:27;101523.13;;;2.36;100.00
8398;BME280;4236;54.504;9.588;2023-03-05T00:36:57;101526.59;;;2.37;100.00
8398;BME280;4236;54.504;9.588;2023-03-05T00:39:24;101524.22;;;2.34;100.00
8398;BME280;4236;54.504;9.588;2023-03-05T00:41:52;101520.66;;;2.35;100.00
8398;BME280;4236;54.504;9.588;2023-03-05T00:44:20;101519.81;;;2.34;100.00
8398;BME280;4236;54.504;9.588;2023-03-05T00:46:47;101520.88;;;2.32;100.00
8398;BME280;4236;54.504;9.588;2023-03-05T00:49:16;101512.28;;;2.30;100.00
8398;BME280;4236;54.504;9.588;2023-03-05T00:51:44;101508.69;;;2.31;100.00
8398;BME280;4236;54.504;9.588;2023-03-05T00:54:12;101514.78;;;2.31;100.00
8398;BME280;4236;54.504;9.588;2023-03-05T00:56:39;101513.34;;;2.27;100.00
8398;BME280;4236;54.504;9.588;2023-03-05T00:59:07;101514.19;;;2.28;100.00
8398;BME280;4236;54.504;9.588;2023-03-05T01:01:35;101498.41;;;2.28;100.00
8398;BME280;4236;54.504;9.588;2023-03-05T01:04:03;101502.13;;;2.25;100.00
8398;BME280;4236;54.504;9.588;2023-03-05T01:06:32;101500.13;;;2.17;100.00
8398;BME280;4236;54.504;9.588;2023-03-05T01:09:00;101500.13;;;2.17;100.00
8398;BME280;4236;54.504;9.588;2023-03-05T01:11:28;101498.00;;;2.11;100.00
8398;BME280;4236;54.504;9.588;2023-03-05T01:13:57;101487.31;;;2.13;100.00
8398;BME280;4236;54.504;9.588;2023-03-05T01:16:25;101493.69;;;2.10;100.00
8398;BME280;4236;54.504;9.588;2023-03-05T01:18:52;101494.53;;;2.11;100.00
8398;BME280;4236;54.504;9.588;2023-03-05T01:21:20;101479.81;;;2.08;100.00
8398;BME280;4236;54.504;9.588;2023-03-05T01:23:49;101483.53;;;2.06;100.00
8398;BME280;4236;54.504;9.588;2023-03-05T01:26:17;101481.25;;;2.01;100.00
8398;BME280;4236;54.504;9.588;2023-03-05T01:28:45;101473.75;;;1.97;100.00
8398;BME280;4236;54.504;9.588;2023-03-05T01:31:12;101465.97;;;1.95;100.00
8398;BME280;4236;54.504;9.588;2023-03-05T01:33:40;101472.06;;;1.96;100.00
8398;BME280;4236;54.504;9.588;2023-03-05T01:36:09;101471.47;;;1.92;100.00
8398;BME280;4236;54.504;9.588;2023-03-05T01:38:40;101460.97;;;1.92;100.00
8398;BME280;4236;54.504;9.588;2023-03-05T01:41:10;101465.28;;;1.93;100.00
8398;BME280;4236;54.504;9.588;2023-03-05T01:43:38;101464.19;;;1.96;100.00
8398;BME280;4236;54.504;9.588;2023-03-05T01:46:32;101464.19;;;1.96;100.00
8398;BME280;4236;54.504;9.588;2023-03-05T01:49:05;101460.84;;;1.94;100.00
8398;BME280;4236;54.504;9.588;2023-03-05T01:51:37;101456.16;;;1.97;100.00
8398;BME280;4236;54.504;9.588;2023-03-05T01:54:08;101465.63;;;2.00;100.00
8398;BME280;4236;54.504;9.588;2023-03-05T01:56:40;101450.53;;;2.02;100.00
8398;BME280;4236;54.504;9.588;2023-03-05T01:59:08;101454.84;;;2.03;100.00
8398;BME280;4236;54.504;9.588;2023-03-05T02:01:39;101450.53;;;2.02;100.00
8398;BME280;4236;54.504;9.588;2023-03-05T02:04:11;101443.50;;;2.02;100.00
8398;BME280;4236;54.504;9.588;2023-03-05T02:06:41;101443.13;;;1.96;100.00
8398;BME280;4236;54.504;9.588;2023-03-05T02:09:10;101447.56;;;1.95;100.00
8398;BME280;4236;54.504;9.588;2023-03-05T02:11:39;101442.44;;;1.94;100.00
8398;BME280;4236;54.504;9.588;2023-03-05T02:14:08;101439.66;;;1.95;100.00
8398;BME280;4236;54.504;9.588;2023-03-05T02:16:37;101433.31;;;1.98;100.00
8398;BME280;4236;54.504;9.588;2023-03-05T02:19:08;101430.19;;;2.04;100.00
8398;BME280;4236;54.504;9.588;2023-03-05T02:21:39;101420.50;;;2.04;100.00
8398;BME280;4236;54.504;9.588;2023-03-05T02:24:10;101422.78;;;2.09;100.00
8398;BME280;4236;54.504;9.588;2023-03-05T02:26:38;101423.13;;;2.04;100.00
8398;BME280;4236;54.504;9.588;2023-03-05T02:29:08;101425.78;;;2.04;100.00
8398;BME280;4236;54.504;9.588;2023-03-05T02:31:36;101420.50;;;2.04;100.00
8398;BME280;4236;54.504;9.588;2023-03-05T02:34:05;101414.41;;;2.04;100.00
8398;BME280;4236;54.504;9.588;2023-03-05T02:36:33;101416.09;;;2.05;100.00
8398;BME280;4236;54.504;9.588;2023-03-05T02:39:03;101417.78;;;2.06;100.00
8398;BME280;4236;54.504;9.588;2023-03-05T02:41:30;101408.66;;;2.10;100.00
8398;BME280;4236;54.504;9.588;2023-03-05T02:43:58;101410.78;;;2.16;100.00
8398;BME280;4236;54.504;9.588;2023-03-05T02:46:26;101405.50;;;2.16;100.00
8398;BME280;4236;54.504;9.588;2023-03-05T02:48:54;101405.50;;;2.16;100.00
8398;BME280;4236;54.504;9.588;2023-03-05T02:51:21;101408.16;;;2.16;100.00
8398;BME280;4236;54.504;9.588;2023-03-05T02:53:49;101406.75;;;2.12;100.00
8398;BME280;4236;54.504;9.588;2023-03-05T02:56:18;101406.00;;;2.10;100.00
8398;BME280;4236;54.504;9.588;2023-03-05T02:58:46;101402.53;;;2.09;100.00
8398;BME280;4236;54.504;9.588;2023-03-05T03:01:13;101408.41;;;2.13;100.00
8398;BME280;4236;54.504;9.588;2023-03-05T03:03:41;101398.97;;;2.10;100.00
8398;BME280;4236;54.504;9.588;2023-03-05T03:06:09;101395.03;;;2.05;100.00
8398;BME280;4236;54.504;9.588;2023-03-05T03:08:36;101399.84;;;2.00;100.00
8398;BME280;4236;54.504;9.588;2023-03-05T03:11:06;101391.25;;;1.98;100.00
8398;BME280;4236;54.504;9.588;2023-03-05T03:13:35;101389.59;;;1.97;100.00
8398;BME280;4236;54.504;9.588;2023-03-05T03:16:04;101395.09;;;1.94;100.00
8398;BME280;4236;54.504;9.588;2023-03-05T03:18:33;101384.25;;;1.87;100.00
8398;BME280;4236;54.504;9.588;2023-03-05T03:21:01;101391.69;;;1.82;100.00
8398;BME280;4236;54.504;9.588;2023-03-05T03:23:29;101384.97;;;1.78;100.00
8398;BME280;4236;54.504;9.588;2023-03-05T03:25:57;101374.81;;;1.74;100.00
8398;BME280;4236;54.504;9.588;2023-03-05T03:28:25;101385.03;;;1.67;100.00
8398;BME280;4236;54.504;9.588;2023-03-05T03:30:54;101386.09;;;1.64;100.00
8398;BME280;4236;54.504;9.588;2023-03-05T03:33:22;101381.06;;;1.61;100.00
8398;BME280;4236;54.504;9.588;2023-03-05T03:35:49;101369.84;;;1.59;100.00
8398;BME280;4236;54.504;9.588;2023-03-05T03:38:17;101368.91;;;1.60;100.00
8398;BME280;4236;54.504;9.588;2023-03-05T03:40:45;101363.66;;;1.60;100.00
8398;BME280;4236;54.504;9.588;2023-03-05T03:43:12;101358.50;;;1.59;100.00
8398;BME280;4236;54.504;9.588;2023-03-05T03:45:40;101356.72;;;1.59;100.00
8398;BME280;4236;54.504;9.588;2023-03-05T03:48:10;101357.41;;;1.61;100.00
8398;BME280;4236;54.504;9.588;2023-03-05T03:50:38;101347.88;;;1.60;100.00
8398;BME280;4236;54.504;9.588;2023-03-05T03:53:07;101346.09;;;1.61;100.00
8398;BME280;4236;54.504;9.588;2023-03-05T03:55:35;101352.16;;;1.61;100.00
8398;BME280;4236;54.504;9.588;2023-03-05T03:58:02;101340.94;;;1.59;100.00
8398;BME280;4236;54.504;9.588;2023-03-05T04:03:18;101340.69;;;1.62;100.00
8398;BME280;4236;54.504;9.588;2023-03-05T04:05:46;101349.28;;;1.64;100.00
8398;BME280;4236;54.504;9.588;2023-03-05T04:08:14;101343.78;;;1.67;100.00
8398;BME280;4236;54.504;9.588;2023-03-05T04:10:41;101342.97;;;1.67;100.00
8398;BME280;4236;54.504;9.588;2023-03-05T04:13:09;101348.53;;;1.74;100.00
8398;BME280;4236;54.504;9.588;2023-03-05T04:15:37;101342.47;;;1.73;100.00
8398;BME280;4236;54.504;9.588;2023-03-05T04:18:04;101344.94;;;1.75;100.00
8398;BME280;4236;54.504;9.588;2023-03-05T04:20:33;101336.94;;;1.76;100.00
8398;BME280;4236;54.504;9.588;2023-03-05T04:23:01;101341.13;;;1.79;100.00
8398;BME280;4236;54.504;9.588;2023-03-05T04:25:29;101333.94;;;1.81;100.00
8398;BME280;4236;54.504;9.588;2023-03-05T04:27:57;101332.13;;;1.81;100.00
8398;BME280;4236;54.504;9.588;2023-03-05T04:30:24;101327.72;;;1.82;100.00
8398;BME280;4236;54.504;9.588;2023-03-05T04:32:52;101327.59;;;1.83;100.00
8398;BME280;4236;54.504;9.588;2023-03-05T04:35:19;101306.44;;;1.85;100.00
8398;BME280;4236;54.504;9.588;2023-03-05T04:37:49;101315.03;;;1.87;100.00
8398;BME280;4236;54.504;9.588;2023-03-05T04:40:17;101307.13;;;1.87;100.00
8398;BME280;4236;54.504;9.588;2023-03-05T04:42:45;101312.63;;;1.84;100.00
8398;BME280;4236;54.504;9.588;2023-03-05T04:45:13;101308.84;;;1.77;100.00
8398;BME280;4236;54.504;9.588;2023-03-05T04:47:42;101298.13;;;1.68;100.00
8398;BME280;4236;54.504;9.588;2023-03-05T04:50:10;101291.69;;;1.61;100.00
8398;BME280;4236;54.504;9.588;2023-03-05T04:52:39;101294.13;;;1.53;100.00
8398;BME280;4236;54.504;9.588;2023-03-05T04:55:09;101289.13;;;1.50;100.00
8398;BME280;4236;54.504;9.588;2023-03-05T04:57:38;101295.22;;;1.51;100.00
8398;BME280;4236;54.504;9.588;2023-03-05T05:00:09;101294.13;;;1.53;100.00
8398;BME280;4236;54.504;9.588;2023-03-05T05:02:39;101292.44;;;1.52;100.00
8398;BME280;4236;54.504;9.588;2023-03-05T05:05:09;101297.00;;;1.50;100.00
8398;BME280;4236;54.504;9.588;2023-03-05T05:07:37;101310.03;;;1.52;100.00
8398;BME280;4236;54.504;9.588;2023-03-05T05:10:05;101299.63;;;1.50;100.00
8398;BME280;4236;54.504;9.588;2023-03-05T05:12:35;101297.13;;;1.49;100.00
8398;BME280;4236;54.504;9.588;2023-03-05T05:15:05;101291.03;;;1.48;100.00
8398;BME280;4236;54.504;9.588;2023-03-05T05:17:34;101289.38;;;1.47;100.00
8398;BME280;4236;54.504;9.588;2023-03-05T05:20:03;101286.97;;;1.44;100.00
8398;BME280;4236;54.504;9.588;2023-03-05T05:22:32;101295.13;;;1.41;100.00
8398;BME280;4236;54.504;9.588;2023-03-05T05:25:00;101286.41;;;1.41;100.00
8398;BME280;4236;54.504;9.588;2023-03-05T05:27:28;101292.38;;;1.43;100.00
8398;BME280;4236;54.504;9.588;2023-03-05T05:29:57;101286.03;;;1.45;100.00
8398;BME280;4236;54.504;9.588;2023-03-05T05:32:25;101284.34;;;1.44;100.00
8398;BME280;4236;54.504;9.588;2023-03-05T05:34:55;101281.38;;;1.49;100.00
8398;BME280;4236;54.504;9.588;2023-03-05T05:37:23;101277.91;;;1.48;100.00
8398;BME280;4236;54.504;9.588;2023-03-05T05:39:52;101274.03;;;1.52;100.00
8398;BME280;4236;54.504;9.588;2023-03-05T05:42:21;101270.47;;;1.53;100.00
8398;BME280;4236;54.504;9.588;2023-03-05T05:44:50;101273.22;;;1.52;100.00
8398;BME280;4236;54.504;9.588;2023-03-05T05:47:19;101274.28;;;1.49;100.00
8398;BME280;4236;54.504;9.588;2023-03-05T05:49:47;101285.41;;;1.53;100.00
8398;BME280;4236;54.504;9.588;2023-03-05T05:52:14;101276.41;;;1.55;100.00
8398;BME280;4236;54.504;9.588;2023-03-05T05:54:42;101279.03;;;1.55;100.00
8398;BME280;4236;54.504;9.588;2023-03-05T05:57:10;101277.44;;;1.43;100.00
8398;BME280;4236;54.504;9.588;2023-03-05T05:59:38;101281.28;;;1.39;100.00
8398;BME280;4236;54.504;9.588;2023-03-05T06:02:06;101274.56;;;1.46;100.00
8398;BME280;4236;54.504;9.588;2023-03-05T06:04:36;101277.91;;;1.48;100.00
8398;BME280;4236;54.504;9.588;2023-03-05T06:07:05;101278.84;;;1.47;100.00
8398;BME280;4236;54.504;9.588;2023-03-05T06:09:34;101279.09;;;1.44;100.00
8398;BME280;4236;54.504;9.588;2023-03-05T06:12:01;101278.50;;;1.41;100.00
8398;BME280;4236;54.504;9.588;2023-03-05T06:14:29;101285.59;;;1.40;100.00
8398;BME280;4236;54.504;9.588;2023-03-05T06:16:57;101283.19;;;1.37;100.00
8398;BME280;4236;54.504;9.588;2023-03-05T06:19:24;101280.06;;;1.43;100.00
8398;BME280;4236;54.504;9.588;2023-03-05T06:21:53;101280.06;;;1.43;100.00
8398;BME280;4236;54.504;9.588;2023-03-05T06:24:21;101279.81;;;1.46;100.00
8398;BME280;4236;54.504;9.588;2023-03-05T06:26:49;101277.75;;;1.50;100.00
8398;BME280;4236;54.504;9.588;2023-03-05T06:29:17;101274.19;;;1.51;100.00
8398;BME280;4236;54.504;9.588;2023-03-05T06:31:44;101276.75;;;1.62;100.00
8398;BME280;4236;54.504;9.588;2023-03-05T06:34:12;101275.56;;;1.66;100.00
8398;BME280;4236;54.504;9.588;2023-03-05T06:36:40;101269.78;;;1.72;100.00
8398;BME280;4236;54.504;9.588;2023-03-05T06:39:10;101264.38;;;1.74;100.00
8398;BME280;4236;54.504;9.588;2023-03-05T06:41:38;101257.94;;;1.78;100.00
8398;BME280;4236;54.504;9.588;2023-03-05T06:44:06;101266.00;;;1.86;100.00
8398;BME280;4236;54.504;9.588;2023-03-05T06:46:35;101259.72;;;1.98;100.00
8398;BME280;4236;54.504;9.588;2023-03-05T06:49:04;101252.91;;;2.16;100.00
8398;BME280;4236;54.504;9.588;2023-03-05T06:51:36;101257.53;;;2.23;100.00
8398;BME280;4236;54.504;9.588;2023-03-05T06:54:06;101254.56;;;2.38;100.00
8398;BME280;4236;54.504;9.588;2023-03-05T06:56:38;101262.72;;;2.65;100.00
8398;BME280;4236;54.504;9.588;2023-03-05T06:59:06;101249.38;;;3.06;100.00
8398;BME280;4236;54.504;9.588;2023-03-05T07:01:35;101248.44;;;3.36;100.00
8398;BME280;4236;54.504;9.588;2023-03-05T07:04:03;101248.03;;;3.60;100.00
8398;BME280;4236;54.504;9.588;2023-03-05T07:06:33;101254.28;;;3.68;100.00
8398;BME280;4236;54.504;9.588;2023-03-05T07:09:02;101247.19;;;3.78;100.00
8398;BME280;4236;54.504;9.588;2023-03-05T07:11:31;101247.03;;;3.80;100.00
8398;BME280;4236;54.504;9.588;2023-03-05T07:14:01;101242.31;;;3.83;100.00
8398;BME280;4236;54.504;9.588;2023-03-05T07:16:31;101252.88;;;3.83;100.00
8398;BME280;4236;54.504;9.588;2023-03-05T07:19:00;101241.34;;;3.84;100.00
8398;BME280;4236;54.504;9.588;2023-03-05T07:21:31;101234.81;;;3.88;100.00
8398;BME280;4236;54.504;9.588;2023-03-05T07:24:00;101243.72;;;3.87;100.00
8398;BME280;4236;54.504;9.588;2023-03-05T07:26:28;101243.31;;;3.63;100.00
8398;BME280;4236;54.504;9.588;2023-03-05T07:28:56;101248.03;;;3.60;100.00
8398;BME280;4236;54.504;9.588;2023-03-05T07:31:26;101239.13;;;3.70;100.00
8398;BME280;4236;54.504;9.588;2023-03-05T07:33:57;101235.69;;;3.70;100.00
8398;BME280;4236;54.504;9.588;2023-03-05T07:36:25;101237.59;;;3.68;100.00
8398;BME280;4236;54.504;9.588;2023-03-05T07:38:53;101239.56;;;3.85;100.00
8398;BME280;4236;54.504;9.588;2023-03-05T07:41:21;101239.78;;;4.01;100.00
8398;BME280;4236;54.504;9.588;2023-03-05T07:43:50;101233.38;;;4.13;100.00
8398;BME280;4236;54.504;9.588;2023-03-05T07:46:20;101240.69;;;4.29;100.00
8398;BME280;4236;54.504;9.588;2023-03-05T07:48:50;101231.53;;;4.60;100.00
8398;BME280;4236;54.504;9.588;2023-03-05T07:51:20;101231.06;;;4.74;100.00
8398;BME280;4236;54.504;9.588;2023-03-05T07:53:50;101230.06;;;4.75;100.00
8398;BME280;4236;54.504;9.588;2023-03-05T07:56:21;101224.69;;;4.94;100.00
8398;BME280;4236;54.504;9.588;2023-03-05T07:58:50;101221.22;;;5.12;100.00
8398;BME280;4236;54.504;9.588;2023-03-05T08:01:18;101219.09;;;5.15;100.00
8398;BME280;4236;54.504;9.588;2023-03-05T08:03:46;101210.72;;;5.20;100.00
8398;BME280;4236;54.504;9.588;2023-03-05T08:06:15;101220.69;;;5.26;100.00
8398;BME280;4236;54.504;9.588;2023-03-05T08:08:42;101220.84;;;5.07;100.00
8398;BME280;4236;54.504;9.588;2023-03-05T08:11:12;101209.91;;;5.01;100.00
8398;BME280;4236;54.504;9.588;2023-03-05T08:13:40;101216.41;;;5.07;100.00
8398;BME280;4236;54.504;9.588;2023-03-05T08:16:11;101213.44;;;5.10;100.00
8398;BME280;4236;54.504;9.588;2023-03-05T08:18:39;101219.38;;;4.94;100.00
8398;BME280;4236;54.504;9.588;2023-03-05T08:21:16;101213.22;;;5.03;100.00
8398;BME280;4236;54.504;9.588;2023-03-05T08:23:43;101215.69;;;5.23;100.00
8398;BME280;4236;54.504;9.588;2023-03-05T08:26:12;101212.31;;;5.30;100.00
8398;BME280;4236;54.504;9.588;2023-03-05T08:28:40;101208.81;;;4.94;100.00
8398;BME280;4236;54.504;9.588;2023-03-05T08:31:08;101203.56;;;4.67;100.00
8398;BME280;4236;54.504;9.588;2023-03-05T08:33:37;101212.03;;;4.71;100.00
8398;BME280;4236;54.504;9.588;2023-03-05T08:36:06;101216.41;;;4.80;100.00
8398;BME280;4236;54.504;9.588;2023-03-05T08:38:35;101209.78;;;4.93;100.00
8398;BME280;4236;54.504;9.588;2023-03-05T08:41:04;101207.44;;;4.63;100.00
8398;BME280;4236;54.504;9.588;2023-03-05T08:43:32;101203.75;;;4.83;100.00
8398;BME280;4236;54.504;9.588;2023-03-05T08:46:00;101206.66;;;4.63;100.00
8398;BME280;4236;54.504;9.588;2023-03-05T08:48:28;101200.56;;;4.80;100.00
8398;BME280;4236;54.504;9.588;2023-03-05T08:50:57;101196.19;;;4.88;100.00
8398;BME280;4236;54.504;9.588;2023-03-05T08:53:25;101205.69;;;4.54;100.00
8398;BME280;4236;54.504;9.588;2023-03-05T08:55:54;101199.16;;;4.58;100.00
8398;BME280;4236;54.504;9.588;2023-03-05T08:58:22;101203.81;;;4.37;100.00
8398;BME280;4236;54.504;9.588;2023-03-05T09:00:50;101200.44;;;4.17;100.00
8398;BME280;4236;54.504;9.588;2023-03-05T09:03:18;101201.56;;;4.15;100.00
8398;BME280;4236;54.504;9.588;2023-03-05T09:05:46;101187.91;;;4.19;100.00
8398;BME280;4236;54.504;9.588;2023-03-05T09:08:14;101186.94;;;4.30;100.00
8398;BME280;4236;54.504;9.588;2023-03-05T09:10:42;101188.31;;;4.24;100.00
8398;BME280;4236;54.504;9.588;2023-03-05T09:13:12;101186.78;;;4.22;100.00
8398;BME280;4236;54.504;9.588;2023-03-05T09:15:40;101188.00;;;4.00;100.00
8398;BME280;4236;54.504;9.588;2023-03-05T09:18:08;101182.66;;;3.73;100.00
8398;BME280;4236;54.504;9.588;2023-03-05T09:20:37;101177.22;;;3.65;100.00
8398;BME280;4236;54.504;9.588;2023-03-05T09:23:05;101183.31;;;3.84;100.00
8398;BME280;4236;54.504;9.588;2023-03-05T09:25:33;101179.00;;;3.83;100.00
8398;BME280;4236;54.504;9.588;2023-03-05T09:28:00;101178.72;;;3.86;100.00
8398;BME280;4236;54.504;9.588;2023-03-05T09:30:29;101173.41;;;3.96;100.00
8398;BME280;4236;54.504;9.588;2023-03-05T09:32:57;101177.28;;;4.02;100.00
8398;BME280;4236;54.504;9.588;2023-03-05T09:35:25;101169.56;;;3.90;100.00
8398;BME280;4236;54.504;9.588;2023-03-05T09:37:52;101174.59;;;4.21;100.00
8398;BME280;4236;54.504;9.588;2023-03-05T09:40:20;101182.94;;;4.16;92.81
8398;BME280;4236;54.504;9.588;2023-03-05T09:42:59;101171.13;;;4.20;96.56
8398;BME280;4236;54.504;9.588;2023-03-05T09:45:36;101183.81;;;3.98;98.65
8398;BME280;4236;54.504;9.588;2023-03-05T09:48:14;101181.47;;;3.95;99.08
8398;BME280;4236;54.504;9.588;2023-03-05T09:50:44;101173.22;;;4.17;98.46
8398;BME280;4236;54.504;9.588;2023-03-05T09:53:31;101175.91;;;4.34;100.00
8398;BME280;4236;54.504;9.588;2023-03-05T09:56:09;101172.69;;;4.40;99.33
8398;BME280;4236;54.504;9.588;2023-03-05T09:58:40;101171.63;;;4.78;100.00
8398;BME280;4236;54.504;9.588;2023-03-05T10:01:12;101164.78;;;4.85;99.90
8398;BME280;4236;54.504;9.588;2023-03-05T10:03:50;101159.63;;;4.84;93.61
8398;BME280;4236;54.504;9.588;2023-03-05T10:06:22;101161.78;;;4.80;95.55
8398;BME280;4236;54.504;9.588;2023-03-05T10:08:54;101172.19;;;4.82;88.43
8398;BME280;4236;54.504;9.588;2023-03-05T10:11:33;101148.09;;;4.85;93.40
8398;BME280;4236;54.504;9.588;2023-03-05T10:14:04;101152.25;;;5.05;86.34
8398;BME280;4236;54.504;9.588;2023-03-05T10:19:40;101146.66;;;5.26;81.93
8398;BME280;4236;54.504;9.588;2023-03-05T10:22:17;101141.53;;;5.07;81.65
8398;BME280;4236;54.504;9.588;2023-03-05T10:24:59;101132.09;;;5.04;80.15
8398;BME280;4236;54.504;9.588;2023-03-05T10:27:38;101131.41;;;5.02;83.29
8398;BME280;4236;54.504;9.588;2023-03-05T10:30:22;101124.63;;;4.82;86.57
8398;BME280;4236;54.504;9.588;2023-03-05T10:33:04;101124.31;;;4.67;82.39
8398;BME280;4236;54.504;9.588;2023-03-05T10:35:46;101134.72;;;4.69;84.17
8398;BME280;4236;54.504;9.588;2023-03-05T10:38:29;101129.41;;;4.51;89.11
8398;BME280;4236;54.504;9.588;2023-03-05T10:41:06;101119.78;;;4.32;95.07
8398;BME280;4236;54.504;9.588;2023-03-05T10:43:37;101133.91;;;4.41;100.00
8398;BME280;4236;54.504;9.588;2023-03-05T10:46:11;101139.03;;;4.42;100.00
8398;BME280;4236;54.504;9.588;2023-03-05T10:48:47;101129.16;;;4.72;100.00
8398;BME280;4236;54.504;9.588;2023-03-05T10:51:18;101110.88;;;4.96;100.00
8398;BME280;4236;54.504;9.588;2023-03-05T10:53:53;101105.59;;;5.14;97.74
8398;BME280;4236;54.504;9.588;2023-03-05T10:56:24;101099.25;;;5.07;95.08
8398;BME280;4236;54.504;9.588;2023-03-05T10:58:52;101108.97;;;4.53;92.57
8398;BME280;4236;54.504;9.588;2023-03-05T11:01:22;101099.63;;;4.59;90.27
8398;BME280;4236;54.504;9.588;2023-03-05T11:03:55;101083.63;;;4.78;86.04
8398;BME280;4236;54.504;9.588;2023-03-05T11:06:35;101097.44;;;4.89;87.16
8398;BME280;4236;54.504;9.588;2023-03-05T11:09:15;101094.94;;;4.70;85.82
8398;BME280;4236;54.504;9.588;2023-03-05T11:11:44;101091.09;;;4.82;86.38
8398;BME280;4236;54.504;9.588;2023-03-05T11:14:28;101092.16;;;5.07;83.57
8398;BME280;4236;54.504;9.588;2023-03-05T11:16:59;101087.06;;;5.31;80.75
8398;BME280;4236;54.504;9.588;2023-03-05T11:19:30;101084.28;;;5.41;76.09
8398;BME280;4236;54.504;9.588;2023-03-05T11:22:07;101090.63;;;5.48;73.63
8398;BME280;4236;54.504;9.588;2023-03-05T11:24:41;101077.50;;;5.13;74.08
8398;BME280;4236;54.504;9.588;2023-03-05T11:27:25;101076.66;;;5.38;74.95
8398;BME280;4236;54.504;9.588;2023-03-05T11:29:57;101074.78;;;4.87;75.31
8398;BME280;4236;54.504;9.588;2023-03-05T11:32:26;101076.22;;;4.64;81.62
8398;BME280;4236;54.504;9.588;2023-03-05T11:34:56;101079.50;;;4.48;93.51
8398;BME280;4236;54.504;9.588;2023-03-05T11:37:26;101085.41;;;4.42;100.00
8398;BME280;4236;54.504;9.588;2023-03-05T11:42:43;101075.53;;;4.62;92.52
8398;BME280;4236;54.504;9.588;2023-03-05T11:45:14;101071.09;;;4.80;90.46
8398;BME280;4236;54.504;9.588;2023-03-05T11:47:45;101074.72;;;4.61;91.65
8398;BME280;4236;54.504;9.588;2023-03-05T11:50:20;101091.88;;;4.30;99.41
8398;BME280;4236;54.504;9.588;2023-03-05T11:52:50;101089.06;;;4.31;91.58
8398;BME280;4236;54.504;9.588;2023-03-05T11:55:20;101071.50;;;4.40;91.00
8398;BME280;4236;54.504;9.588;2023-03-05T11:57:59;101074.06;;;4.32;90.45
8398;BME280;4236;54.504;9.588;2023-03-05T12:00:33;101069.88;;;4.57;90.57
8398;BME280;4236;54.504;9.588;2023-03-05T12:03:08;101068.88;;;4.58;93.49
8398;BME280;4236;54.504;9.588;2023-03-05T12:05:41;101059.94;;;4.68;89.22
8398;BME280;4236;54.504;9.588;2023-03-05T12:08:13;101059.88;;;4.78;90.56
8398;BME280;4236;54.504;9.588;2023-03-05T12:10:43;101064.22;;;4.87;87.51
8398;BME280;4236;54.504;9.588;2023-03-05T12:13:15;101056.44;;;4.85;83.46
8398;BME280;4236;54.504;9.588;2023-03-05T12:15:51;101046.25;;;4.90;75.33
8398;BME280;4236;54.504;9.588;2023-03-05T12:18:30;101045.56;;;4.88;84.71
8398;BME280;4236;54.504;9.588;2023-03-05T12:21:06;101029.34;;;4.83;84.06
8398;BME280;4236;54.504;9.588;2023-03-05T12:23:44;101032.31;;;4.80;86.30
8398;BME280;4236;54.504;9.588;2023-03-05T12:26:12;101039.22;;;4.81;85.42
8398;BME280;4236;54.504;9.588;2023-03-05T12:28:54;101033.81;;;4.83;80.82
8398;BME280;4236;54.504;9.588;2023-03-05T12:31:33;101033.50;;;4.68;85.23
8398;BME280;4236;54.504;9.588;2023-03-05T12:34:35;101020.81;;;4.54;86.78
8398;BME280;4236;54.504;9.588;2023-03-05T12:37:08;101038.00;;;4.23;97.93
8398;BME280;4236;54.504;9.588;2023-03-05T12:39:56;101052.94;;;3.77;100.00
8398;BME280;4236;54.504;9.588;2023-03-05T12:42:43;101045.22;;;3.66;100.00
8398;BME280;4236;54.504;9.588;2023-03-05T12:45:28;101035.25;;;3.60;100.00
8398;BME280;4236;54.504;9.588;2023-03-05T12:48:39;101034.09;;;3.72;100.00
8398;BME280;4236;54.504;9.588;2023-03-05T12:51:30;101023.56;;;4.00;100.00
8398;BME280;4236;54.504;9.588;2023-03-05T12:54:26;101013.34;;;4.14;100.00
8398;BME280;4236;54.504;9.588;2023-03-05T12:56:55;101009.56;;;4.34;100.00
8398;BME280;4236;54.504;9.588;2023-03-05T12:59:28;101001.34;;;4.37;95.47
8398;BME280;4236;54.504;9.588;2023-03-05T13:02:00;100999.06;;;4.25;85.81
8398;BME280;4236;54.504;9.588;2023-03-05T13:04:31;100990.63;;;4.21;90.68
8398;BME280;4236;54.504;9.588;2023-03-05T13:07:03;100985.75;;;4.26;96.42
8398;BME280;4236;54.504;9.588;2023-03-05T13:09:33;100982.19;;;4.18;88.51
8398;BME280;4236;54.504;9.588;2023-03-05T13:12:03;100992.16;;;4.24;100.00
8398;BME280;4236;54.504;9.588;2023-03-05T13:14:38;100979.03;;;4.32;88.57
8398;BME280;4236;54.504;9.588;2023-03-05T13:17:26;100992.22;;;4.14;82.31
8398;BME280;4236;54.504;9.588;2023-03-05T13:19:55;100984.38;;;4.22;79.26
8398;BME280;4236;54.504;9.588;2023-03-05T13:22:24;100973.69;;;4.41;87.06
8398;BME280;4236;54.504;9.588;2023-03-05T13:25:14;100963.13;;;4.41;80.26
8398;BME280;4236;54.504;9.588;2023-03-05T13:27:42;100967.09;;;4.45;87.09
8398;BME280;4236;54.504;9.588;2023-03-05T13:30:22;100965.97;;;4.48;88.01
8398;BME280;4236;54.504;9.588;2023-03-05T13:32:51;100965.66;;;4.33;96.25
8398;BME280;4236;54.504;9.588;2023-03-05T13:35:21;100963.19;;;4.32;91.70
8398;BME280;4236;54.504;9.588;2023-03-05T13:37:49;100957.91;;;4.32;89.22
8398;BME280;4236;54.504;9.588;2023-03-05T13:40:21;100962.34;;;4.31;88.69